createdAt,value
2024-01-15T00:02:14.232Z,6.93
2024-01-15T00:04:41.393Z,7.00
2024-01-15T00:07:09.668Z,7.45
2024-01-15T00:09:36.655Z,4.63
2024-01-15T00:12:03.201Z,6.22
2024-01-15T00:14:31.649Z,6.60
2024-01-15T00:17:00.716Z,6.50
2024-01-15T00:19:27.293Z,5.22
2024-01-15T00:21:54.029Z,3.90
2024-01-15T00:24:21.803Z,4.13
2024-01-15T00:26:48.599Z,4.65
2024-01-15T00:29:15.422Z,5.07
2024-01-15T00:31:42.566Z,7.07
2024-01-15T00:34:09.144Z,5.80
2024-01-15T00:36:35.616Z,5.68
2024-01-15T00:39:02.322Z,7.78
2024-01-15T00:41:28.805Z,6.00
2024-01-15T00:44:10.123Z,5.30
2024-01-15T00:46:36.656Z,5.45
2024-01-15T00:49:03.199Z,4.43
2024-01-15T00:51:29.761Z,4.32
2024-01-15T00:53:56.337Z,4.10
2024-01-15T00:56:22.775Z,6.43
2024-01-15T00:58:49.354Z,5.78
2024-01-15T01:01:16.254Z,4.63
2024-01-15T01:03:43.587Z,4.07
2024-01-15T01:06:10.755Z,4.22
2024-01-15T01:08:39.794Z,5.07
2024-01-15T01:11:06.233Z,6.50
2024-01-15T01:13:32.883Z,9.20
2024-01-15T01:15:59.525Z,12.48
2024-01-15T01:18:26.282Z,9.43
2024-01-15T01:20:53.892Z,10.52
2024-01-15T01:23:21.671Z,17.42
2024-01-15T01:25:49.720Z,14.75
2024-01-15T01:28:16.781Z,12.00
2024-01-15T01:30:43.436Z,12.65
2024-01-15T01:33:10.138Z,14.02
2024-01-15T01:35:36.942Z,14.32
2024-01-15T01:38:03.413Z,13.15
2024-01-15T01:40:29.902Z,13.32
2024-01-15T01:42:56.529Z,11.85
2024-01-15T01:45:25.498Z,16.92
2024-01-15T01:47:52.671Z,14.48
2024-01-15T01:50:19.216Z,13.13
2024-01-15T01:52:45.855Z,12.63
2024-01-15T01:55:12.315Z,15.00
2024-01-15T01:57:38.832Z,16.45
2024-01-15T02:00:05.494Z,13.05
2024-01-15T02:02:32.072Z,15.43
2024-01-15T02:04:58.624Z,14.85
2024-01-15T02:07:25.214Z,13.52
2024-01-15T02:09:52.166Z,17.88
2024-01-15T02:12:18.722Z,14.77
2024-01-15T02:14:46.471Z,14.82
2024-01-15T02:17:12.905Z,17.20
2024-01-15T02:19:39.881Z,15.98
2024-01-15T02:22:06.361Z,17.48
2024-01-15T02:24:33.149Z,16.92
2024-01-15T02:26:59.583Z,15.15
2024-01-15T02:29:26.047Z,13.43
2024-01-15T02:31:52.569Z,14.30
2024-01-15T02:34:19.229Z,16.60
2024-01-15T02:36:45.934Z,16.67
2024-01-15T02:39:12.594Z,8.30
2024-01-15T02:41:39.201Z,17.13
2024-01-15T02:44:05.751Z,17.52
2024-01-15T02:46:32.207Z,16.08
2024-01-15T02:48:58.887Z,14.50
2024-01-15T02:51:26.124Z,14.63
2024-01-15T02:53:52.665Z,13.10
2024-01-15T02:56:19.194Z,16.83
2024-01-15T02:58:45.700Z,14.80
2024-01-15T03:01:12.459Z,12.63
2024-01-15T03:03:41.497Z,21.02
2024-01-15T03:06:08.112Z,14.98
2024-01-15T03:08:36.921Z,14.85
2024-01-15T03:11:04.085Z,16.02
2024-01-15T03:13:30.620Z,15.73
2024-01-15T03:15:57.281Z,19.38
2024-01-15T03:18:31.661Z,15.60
2024-01-15T03:21:00.862Z,17.90
2024-01-15T03:23:27.720Z,19.23
2024-01-15T03:25:54.352Z,8.50
2024-01-15T03:28:21.805Z,10.73
2024-01-15T03:30:48.547Z,16.15
2024-01-15T03:33:15.314Z,15.45
2024-01-15T03:35:41.871Z,14.80
2024-01-15T03:38:08.390Z,17.52
2024-01-15T03:40:35.056Z,14.48
2024-01-15T03:43:02.176Z,14.32
2024-01-15T03:45:29.324Z,17.20
2024-01-15T03:47:56.017Z,18.98
2024-01-15T03:50:22.518Z,15.40
2024-01-15T03:52:48.959Z,19.83
2024-01-15T03:55:15.543Z,24.70
2024-01-15T03:57:43.084Z,17.52
2024-01-15T04:00:09.723Z,16.15
2024-01-15T04:02:38.738Z,18.73
2024-01-15T04:05:05.321Z,20.75
2024-01-15T04:07:32.851Z,19.23
2024-01-15T04:09:59.365Z,19.90
2024-01-15T04:12:25.951Z,14.25
2024-01-15T04:14:52.633Z,20.17
2024-01-15T04:17:20.424Z,20.55
2024-01-15T04:19:47.045Z,17.80
2024-01-15T04:22:13.618Z,20.63
2024-01-15T04:24:40.270Z,18.67
2024-01-15T04:27:07.998Z,17.23
2024-01-15T04:29:37.050Z,18.45
2024-01-15T04:32:04.950Z,18.23
2024-01-15T04:34:31.539Z,18.02
2024-01-15T04:39:50.977Z,21.23
2024-01-15T04:42:17.814Z,21.50
2024-01-15T04:44:44.232Z,24.27
2024-01-15T04:47:10.758Z,18.38
2024-01-15T04:49:37.618Z,22.67
2024-01-15T04:52:04.239Z,22.70
2024-01-15T04:54:30.797Z,21.80
2024-01-15T04:56:57.364Z,19.73
2024-01-15T04:59:23.955Z,17.15
2024-01-15T05:01:50.633Z,16.25
2024-01-15T05:04:17.282Z,24.20
2024-01-15T05:06:44.904Z,23.92
2024-01-15T05:09:11.598Z,15.57
2024-01-15T05:11:38.141Z,23.92
2024-01-15T05:14:04.580Z,13.85
2024-01-15T05:16:31.242Z,22.02
2024-01-15T05:18:57.848Z,20.88
2024-01-15T05:21:24.419Z,17.17
2024-01-15T05:23:50.969Z,18.45
2024-01-15T05:26:17.432Z,20.27
2024-01-15T05:28:44.067Z,20.88
2024-01-15T05:31:10.753Z,19.77
2024-01-15T05:33:37.469Z,22.48
2024-01-15T05:36:04.304Z,14.77
2024-01-15T05:38:30.789Z,17.90
2024-01-15T05:40:57.280Z,19.85
2024-01-15T05:43:24.326Z,21.50
2024-01-15T05:45:50.967Z,21.25
2024-01-15T05:48:17.899Z,19.85
2024-01-15T05:50:44.665Z,21.08
2024-01-15T05:53:11.159Z,20.60
2024-01-15T05:55:38.185Z,18.10
2024-01-15T05:58:10.947Z,21.05
2024-01-15T06:00:37.571Z,19.25
2024-01-15T06:03:04.283Z,15.23
2024-01-15T06:05:30.972Z,18.40
2024-01-15T06:07:59.236Z,12.90
2024-01-15T06:10:27.966Z,15.57
2024-01-15T06:12:54.569Z,18.27
2024-01-15T06:15:21.303Z,17.15
2024-01-15T06:17:47.891Z,14.00
2024-01-15T06:20:14.549Z,12.88
2024-01-15T06:22:41.706Z,12.20
2024-01-15T06:25:08.308Z,14.40
2024-01-15T06:27:35.519Z,14.50
2024-01-15T06:30:02.340Z,12.15
2024-01-15T06:32:29.204Z,15.90
2024-01-15T06:34:55.706Z,12.13
2024-01-15T06:37:22.491Z,9.93
2024-01-15T06:39:50.753Z,14.68
2024-01-15T06:42:17.672Z,15.27
2024-01-15T06:44:44.449Z,12.63
2024-01-15T06:47:12.400Z,9.48
2024-01-15T06:49:38.993Z,11.73
2024-01-15T06:52:06.066Z,14.98
2024-01-15T06:54:33.765Z,17.45
2024-01-15T06:57:00.721Z,15.13
2024-01-15T06:59:27.643Z,16.77
2024-01-15T07:01:54.205Z,14.48
2024-01-15T07:04:21.301Z,14.23
2024-01-15T07:06:48.496Z,15.75
2024-01-15T07:09:15.136Z,16.50
2024-01-15T07:11:41.694Z,13.25
2024-01-15T07:14:08.906Z,16.40
2024-01-15T07:16:38.252Z,15.68
2024-01-15T07:19:06.213Z,15.02
2024-01-15T07:21:32.880Z,12.05
2024-01-15T07:23:59.473Z,14.40
2024-01-15T07:26:26.040Z,13.98
2024-01-15T07:28:52.445Z,14.63
2024-01-15T07:31:19.235Z,13.38
2024-01-15T07:33:45.861Z,13.23
2024-01-15T07:36:21.977Z,13.73
2024-01-15T07:38:49.397Z,9.23
2024-01-15T07:41:16.289Z,12.15
2024-01-15T07:43:43.325Z,11.05
2024-01-15T07:46:09.950Z,11.95
2024-01-15T07:48:36.549Z,13.65
2024-01-15T07:51:03.270Z,12.80
2024-01-15T07:53:30.759Z,12.27
2024-01-15T07:55:57.364Z,14.40
2024-01-15T07:58:25.026Z,12.90
2024-01-15T08:00:51.595Z,12.13
2024-01-15T08:03:18.104Z,9.75
2024-01-15T08:05:45.512Z,11.50
2024-01-15T08:08:12.442Z,14.60
2024-01-15T08:10:39.195Z,15.60
2024-01-15T08:13:05.719Z,15.15
2024-01-15T08:15:32.382Z,14.02
2024-01-15T08:17:59.069Z,11.18
2024-01-15T08:23:00.867Z,12.90
2024-01-15T08:25:27.409Z,12.20
2024-01-15T08:27:54.167Z,10.73
2024-01-15T08:30:21.240Z,11.25
2024-01-15T08:32:48.829Z,10.30
2024-01-15T08:35:17.229Z,12.20
2024-01-15T08:37:49.406Z,13.15
2024-01-15T08:40:17.281Z,11.83
2024-01-15T08:42:47.202Z,11.70
2024-01-15T08:45:13.944Z,9.75
2024-01-15T08:47:43.596Z,13.02
2024-01-15T08:50:12.566Z,10.32
2024-01-15T08:52:39.093Z,12.43
2024-01-15T08:55:05.716Z,10.57
2024-01-15T08:57:32.234Z,12.25
2024-01-15T08:59:58.890Z,12.73
2024-01-15T09:02:26.240Z,9.00
2024-01-15T09:04:54.715Z,11.27
2024-01-15T09:07:22.401Z,13.02
2024-01-15T09:09:49.104Z,5.80
2024-01-15T09:12:16.114Z,7.95
2024-01-15T09:14:42.803Z,10.63
2024-01-15T09:17:11.191Z,9.82
2024-01-15T09:19:37.898Z,8.77
2024-01-15T09:22:05.045Z,8.48
2024-01-15T09:24:31.698Z,14.48
2024-01-15T09:26:58.286Z,8.75
2024-01-15T09:29:25.932Z,6.90
2024-01-15T09:31:52.622Z,8.65
2024-01-15T09:34:21.284Z,12.48
2024-01-15T09:36:48.518Z,9.23
2024-01-15T09:39:15.515Z,7.25
2024-01-15T09:41:42.073Z,9.38
2024-01-15T09:44:09.346Z,10.30
2024-01-15T09:46:36.530Z,8.90
2024-01-15T09:49:03.495Z,8.43
2024-01-15T09:51:30.354Z,8.80
2024-01-15T09:53:58.149Z,9.48
2024-01-15T09:56:25.680Z,8.07
2024-01-15T09:58:54.644Z,7.28
2024-01-15T10:01:21.312Z,9.20
2024-01-15T10:03:48.013Z,6.53
2024-01-15T10:06:14.712Z,8.15
2024-01-15T10:08:41.527Z,8.20
2024-01-15T10:11:08.113Z,6.88
2024-01-15T10:13:34.739Z,8.82
2024-01-15T10:18:45.342Z,11.35
2024-01-15T10:21:12.259Z,8.18
2024-01-15T10:23:39.442Z,7.57
2024-01-15T10:26:06.778Z,6.53
2024-01-15T10:28:33.526Z,7.50
2024-01-15T10:31:01.322Z,14.20
2024-01-15T10:33:28.735Z,8.45
2024-01-15T10:35:55.689Z,7.60
2024-01-15T10:38:22.669Z,10.18
2024-01-15T10:40:50.006Z,7.82
2024-01-15T10:43:16.831Z,6.40
2024-01-15T10:45:43.635Z,11.65
2024-01-15T10:48:12.830Z,6.55
2024-01-15T10:50:40.377Z,6.38
2024-01-15T10:53:06.904Z,10.73
2024-01-15T10:55:33.477Z,6.18
2024-01-15T10:58:00.305Z,5.63
2024-01-15T11:00:27.331Z,4.57
2024-01-15T11:05:34.296Z,7.00
2024-01-15T11:08:00.941Z,6.22
2024-01-15T11:10:28.046Z,5.25
2024-01-15T11:12:54.832Z,6.50
2024-01-15T11:15:21.877Z,4.82
2024-01-15T11:17:51.493Z,6.50
2024-01-15T11:20:24.789Z,6.88
2024-01-15T11:22:51.455Z,7.35
2024-01-15T11:25:19.361Z,5.40
2024-01-15T11:27:46.036Z,5.68
2024-01-15T11:30:21.435Z,7.55
2024-01-15T11:32:49.402Z,6.65
2024-01-15T11:35:16.493Z,5.93
2024-01-15T11:37:43.734Z,5.15
2024-01-15T11:40:11.570Z,6.63
2024-01-15T11:42:39.444Z,5.45
2024-01-15T11:45:06.477Z,6.07
2024-01-15T11:50:25.114Z,5.03
2024-01-15T11:52:51.724Z,6.22
2024-01-15T11:55:18.299Z,3.28
2024-01-15T11:57:44.827Z,4.20
2024-01-15T12:00:12.060Z,5.15
2024-01-15T12:02:41.968Z,5.32
2024-01-15T12:05:08.560Z,6.55
2024-01-15T12:07:35.467Z,6.78
2024-01-15T12:10:02.163Z,5.53
2024-01-15T12:12:31.456Z,5.97
2024-01-15T12:14:58.000Z,5.57
2024-01-15T12:17:24.713Z,6.00
2024-01-15T12:19:51.591Z,8.75
2024-01-15T12:22:18.261Z,5.95
2024-01-15T12:24:44.866Z,6.20
2024-01-15T12:27:11.422Z,4.93
2024-01-15T12:29:38.618Z,8.82
2024-01-15T12:32:07.119Z,6.07
2024-01-15T12:34:35.329Z,4.00
2024-01-15T12:37:04.039Z,8.77
2024-01-15T12:39:30.917Z,7.05
2024-01-15T12:41:59.132Z,3.88
2024-01-15T12:44:25.868Z,3.38
2024-01-15T12:47:00.739Z,7.30
2024-01-15T12:49:27.979Z,6.93
2024-01-15T12:51:54.931Z,4.93
2024-01-15T12:54:22.032Z,7.20
2024-01-15T12:56:49.111Z,5.45
2024-01-15T12:59:16.044Z,7.55
2024-01-15T13:01:42.982Z,5.57
2024-01-15T13:04:09.779Z,8.77
2024-01-15T13:06:36.955Z,6.55
2024-01-15T13:09:16.394Z,4.97
2024-01-15T13:11:43.890Z,5.38
2024-01-15T13:14:10.759Z,5.00
2024-01-15T13:16:37.618Z,7.07
2024-01-15T13:21:53.695Z,6.53
2024-01-15T13:24:21.340Z,4.78
2024-01-15T13:26:54.148Z,5.90
2024-01-15T13:29:22.541Z,4.40
2024-01-15T13:31:49.182Z,4.20
2024-01-15T13:34:16.804Z,3.13
2024-01-15T13:36:43.764Z,7.45
2024-01-15T13:39:10.454Z,3.80
2024-01-15T13:41:37.883Z,4.43
2024-01-15T13:44:07.190Z,4.30
2024-01-15T13:46:35.238Z,5.63
2024-01-15T13:49:02.604Z,4.95
2024-01-15T13:51:29.495Z,6.97
2024-01-15T13:53:57.681Z,3.30
2024-01-15T13:56:27.563Z,4.88
2024-01-15T13:58:54.382Z,5.30
2024-01-15T14:01:25.962Z,3.53
2024-01-15T14:03:59.553Z,3.47
2024-01-15T14:06:31.285Z,4.63
2024-01-15T14:09:02.636Z,4.47
2024-01-15T14:11:29.529Z,4.05
2024-01-15T14:13:56.256Z,3.72
2024-01-15T14:16:26.095Z,8.57
2024-01-15T14:18:53.118Z,5.40
2024-01-15T14:21:20.515Z,5.25
2024-01-15T14:23:47.311Z,4.18
2024-01-15T14:26:15.486Z,3.83
2024-01-15T14:28:44.573Z,5.97
2024-01-15T14:31:11.189Z,3.95
2024-01-15T14:33:40.840Z,5.05
2024-01-15T14:36:07.466Z,4.47
2024-01-15T14:38:43.692Z,4.38
2024-01-15T14:41:11.252Z,4.65
2024-01-15T14:43:37.778Z,3.45
2024-01-15T14:46:04.679Z,5.25
2024-01-15T14:56:56.059Z,4.07
2024-01-15T14:59:25.783Z,5.10
2024-01-15T15:01:53.722Z,3.25
2024-01-15T15:04:20.563Z,3.25
2024-01-15T15:06:52.625Z,5.07
2024-01-15T15:09:19.153Z,4.87
2024-01-15T15:11:46.690Z,3.05
2024-01-15T15:14:13.560Z,3.65
2024-01-15T15:16:44.558Z,3.97
2024-01-15T15:19:11.216Z,3.53
2024-01-15T15:21:47.153Z,3.40
2024-01-15T15:24:14.281Z,3.50
2024-01-15T15:26:41.217Z,3.33
2024-01-15T15:29:08.459Z,3.80
2024-01-15T16:23:16.707Z,2.42
2024-01-15T16:23:33.413Z,4.50
2024-01-15T16:24:08.035Z,3.45
2024-01-15T16:26:31.703Z,3.20
2024-01-15T16:34:29.843Z,2.47
2024-01-15T16:37:19.744Z,3.65
2024-01-15T16:39:47.275Z,2.40
2024-01-15T16:42:14.622Z,3.15
2024-01-15T16:44:42.303Z,2.72
2024-01-15T16:47:09.169Z,2.03
2024-01-15T16:49:35.980Z,2.70
2024-01-15T16:52:05.431Z,2.83
2024-01-15T16:54:36.404Z,3.90
2024-01-15T16:57:04.219Z,2.47
2024-01-15T16:59:30.913Z,2.67
2024-01-15T17:02:06.260Z,2.83
2024-01-15T17:04:35.314Z,8.18
2024-01-15T17:07:02.158Z,2.10
2024-01-15T17:09:30.394Z,2.40
2024-01-15T17:11:58.852Z,2.78
2024-01-15T17:14:25.904Z,2.33
2024-01-15T17:19:38.730Z,3.58
2024-01-15T17:22:05.603Z,2.85
2024-01-15T17:24:36.208Z,2.35
2024-01-15T17:27:02.755Z,2.60
2024-01-15T17:29:29.906Z,4.00
2024-01-15T17:31:57.080Z,1.73
2024-01-15T17:34:32.468Z,3.63
2024-01-15T17:36:58.986Z,3.10
2024-01-15T17:39:26.039Z,2.90
2024-01-15T17:41:57.485Z,4.03
2024-01-15T17:44:34.950Z,3.65
2024-01-15T17:47:07.053Z,2.83
2024-01-15T17:49:38.247Z,5.47
2024-01-15T17:52:04.947Z,2.50
2024-01-15T17:54:32.360Z,4.00
2024-01-15T17:57:01.583Z,2.45
2024-01-15T17:59:29.134Z,5.72
2024-01-15T18:01:58.276Z,3.03
2024-01-15T18:07:06.483Z,3.65
2024-01-15T18:09:33.315Z,3.47
2024-01-15T18:12:00.001Z,2.78
2024-01-15T18:14:29.493Z,2.17
2024-01-15T18:16:58.265Z,2.95
2024-01-15T18:19:25.148Z,1.80
2024-01-15T18:21:52.253Z,2.20
2024-01-15T18:24:18.809Z,2.88
2024-01-15T18:26:45.442Z,2.17
2024-01-15T18:29:15.052Z,1.88
2024-01-15T18:31:41.653Z,3.10
2024-01-15T18:34:12.203Z,2.00
2024-01-15T18:36:41.275Z,2.72
2024-01-15T18:39:09.149Z,2.88
2024-01-15T18:41:40.247Z,2.28
2024-01-15T18:44:09.471Z,2.20
2024-01-15T18:49:45.128Z,4.50
2024-01-15T18:52:12.383Z,2.50
2024-01-15T18:54:41.673Z,2.95
2024-01-15T19:32:47.326Z,1.92
2024-01-15T19:35:14.397Z,1.52
2024-01-15T19:37:43.987Z,1.55
2024-01-15T19:40:10.670Z,2.25
2024-01-15T19:42:37.966Z,1.23
2024-01-15T19:45:08.637Z,1.85
2024-01-15T19:47:37.708Z,1.70
2024-01-15T19:50:11.842Z,2.05
2024-01-15T19:52:39.074Z,1.83
2024-01-15T19:55:09.065Z,1.90
2024-01-15T19:57:38.499Z,2.28
2024-01-15T20:00:05.175Z,1.48
2024-01-15T20:02:31.811Z,1.55
2024-01-15T20:04:59.111Z,1.50
2024-01-15T20:07:25.652Z,1.85
2024-01-15T20:09:52.131Z,1.70
2024-01-15T20:12:18.929Z,1.85
2024-01-15T20:14:45.579Z,2.35
2024-01-15T20:17:14.569Z,2.45
2024-01-15T20:19:41.595Z,2.22
2024-01-15T20:22:08.449Z,2.38
2024-01-15T20:24:35.294Z,2.35
2024-01-15T20:27:02.255Z,2.67
2024-01-15T20:32:21.360Z,2.42
2024-01-15T20:34:48.585Z,2.63
2024-01-15T20:37:15.778Z,2.90
2024-01-15T20:39:42.707Z,3.05
2024-01-15T20:42:16.775Z,2.85
2024-01-15T20:44:43.758Z,3.95
2024-01-15T20:47:10.301Z,4.57
2024-01-15T20:49:36.778Z,4.10
2024-01-15T20:52:04.083Z,3.38
2024-01-15T20:54:30.725Z,3.72
2024-01-15T20:56:58.019Z,3.72
2024-01-15T20:59:24.593Z,4.13
2024-01-15T21:01:51.191Z,3.45
2024-01-15T21:04:17.731Z,3.42
2024-01-15T21:06:46.664Z,3.13
2024-01-15T21:09:13.263Z,4.43
2024-01-15T21:11:40.029Z,2.70
2024-01-15T21:14:07.495Z,3.08
2024-01-15T21:16:34.214Z,2.63
2024-01-15T21:19:02.038Z,3.08
2024-01-15T21:21:28.681Z,3.00
2024-01-15T21:23:57.508Z,3.40
2024-01-15T21:26:24.305Z,4.40
2024-01-15T21:28:52.372Z,4.43
2024-01-15T21:31:19.591Z,3.03
2024-01-15T21:33:46.354Z,6.05
2024-01-15T21:36:13.106Z,3.42
2024-01-15T21:38:40.073Z,3.30
2024-01-15T21:41:07.852Z,3.35
2024-01-15T21:43:34.762Z,3.58
2024-01-15T21:46:01.419Z,3.45
2024-01-15T21:51:25.326Z,3.40
2024-01-15T21:53:52.414Z,4.63
2024-01-15T21:56:19.285Z,3.80
2024-01-15T21:58:47.346Z,3.65
2024-01-15T22:01:18.176Z,3.78
2024-01-15T22:03:47.394Z,5.45
2024-01-15T22:06:14.281Z,5.07
2024-01-15T22:08:42.244Z,6.28
2024-01-15T22:11:11.146Z,4.03
2024-01-15T22:13:39.974Z,3.67
2024-01-15T22:16:06.560Z,2.97
2024-01-15T22:18:33.216Z,3.85
2024-01-15T22:21:00.587Z,4.35
2024-01-15T22:23:28.395Z,4.20
2024-01-15T22:25:54.891Z,3.25
2024-01-15T22:28:21.356Z,4.85
2024-01-15T22:30:47.812Z,4.22
2024-01-15T22:33:14.572Z,3.95
2024-01-15T22:35:41.893Z,4.63
2024-01-15T22:38:08.451Z,4.82
2024-01-15T22:40:35.163Z,2.90
2024-01-15T22:43:02.549Z,3.50
2024-01-15T22:45:29.469Z,3.70
2024-01-15T22:47:57.356Z,3.45
2024-01-15T22:50:24.160Z,3.63
2024-01-15T22:52:53.736Z,4.30
2024-01-15T22:55:20.373Z,4.32
2024-01-15T22:57:46.876Z,4.47
2024-01-15T23:00:14.505Z,4.22
2024-01-15T23:02:43.763Z,3.20
2024-01-15T23:05:12.347Z,3.60
2024-01-15T23:07:38.957Z,3.28
2024-01-15T23:10:07.527Z,3.08
2024-01-15T23:12:34.778Z,3.95
2024-01-15T23:15:01.444Z,3.38
2024-01-15T23:17:28.060Z,3.35
2024-01-15T23:19:54.582Z,3.40
2024-01-15T23:22:21.159Z,2.72
2024-01-15T23:24:47.696Z,5.07
2024-01-15T23:27:14.605Z,3.67
2024-01-15T23:29:41.337Z,4.00
2024-01-15T23:32:08.721Z,5.38
2024-01-15T23:34:35.463Z,3.45
2024-01-15T23:37:02.130Z,3.15
2024-01-15T23:39:29.713Z,7.00
2024-01-15T23:41:56.532Z,4.93
2024-01-15T23:44:23.474Z,3.90
2024-01-15T23:46:50.061Z,4.38
2024-01-15T23:49:16.710Z,3.20
2024-01-15T23:51:43.325Z,4.20
2024-01-15T23:54:12.232Z,3.70
2024-01-15T23:56:38.905Z,4.90
2024-01-15T23:59:05.526Z,3.97
